Time;durP1;ratioP1;P1;durP2;ratioP2;P2;SDS_P1;SDS_P2;PMS_P1;PMS_P2;Temp;Humidity;BMP_temperature;BMP_pressure;BME280_temperature;BME280_humidity;BME280_pressure;Samples;Min_cycle;Max_cycle;Signal;HPM_P1;HPM_P2
2021/07/17 00:00:35;;;;;;;10.10;9.20;;;;;;;17.76;100.00;98384.69;4981688;28;20210;-69
2021/07/17 00:03:05;;;;;;;9.17;8.47;;;;;;;17.71;100.00;98382.59;4984189;28;20257;-69
2021/07/17 00:05:34;;;;;;;9.03;8.40;;;;;;;17.70;100.00;98391.66;4982746;28;20229;-68
2021/07/17 00:08:04;;;;;;;10.67;9.87;;;;;;;17.61;100.00;98395.56;4982909;28;20206;-70
2021/07/17 00:10:36;;;;;;;9.67;8.77;;;;;;;17.72;100.00;98402.19;4983162;28;20201;-68
2021/07/17 00:13:06;;;;;;;10.00;9.20;;;;;;;17.63;100.00;98406.91;4981924;28;20221;-70
2021/07/17 00:15:34;;;;;;;10.00;9.10;;;;;;;17.67;100.00;98401.97;4980782;28;20210;-69
2021/07/17 00:18:03;;;;;;;9.20;8.50;;;;;;;17.57;100.00;98397.78;4978673;28;20284;-70
2021/07/17 00:20:31;;;;;;;9.03;8.43;;;;;;;17.60;100.00;98401.94;4981705;28;20218;-68
2021/07/17 00:22:59;;;;;;;9.77;8.93;;;;;;;17.56;100.00;98398.81;4982324;28;20233;-70
2021/07/17 00:25:28;;;;;;;9.73;8.63;;;;;;;17.46;100.00;98401.03;4983298;28;20234;-70
2021/07/17 00:27:58;;;;;;;10.27;9.37;;;;;;;17.53;100.00;98398.41;4985557;28;20210;-70
2021/07/17 00:30:26;;;;;;;9.47;8.77;;;;;;;17.47;100.00;98402.69;4985732;28;20217;-68
2021/07/17 00:32:54;;;;;;;10.03;9.23;;;;;;;17.46;100.00;98401.03;4981383;28;20852;-70
2021/07/17 00:35:22;;;;;;;9.63;9.03;;;;;;;17.40;100.00;98407.19;4982872;28;20501;-70
2021/07/17 00:37:50;;;;;;;10.17;9.27;;;;;;;17.32;100.00;98401.00;4982284;28;20210;-69
2021/07/17 00:40:20;;;;;;;10.13;9.33;;;;;;;17.29;100.00;98412.09;4983843;28;20205;-69
2021/07/17 00:42:50;;;;;;;11.07;10.17;;;;;;;17.23;100.00;98402.16;4966749;28;20241;-71
2021/07/17 00:45:20;;;;;;;10.20;9.50;;;;;;;17.18;100.00;98405.44;4968567;28;20624;-68
2021/07/17 00:47:50;;;;;;;10.23;9.43;;;;;;;17.19;100.00;98392.84;4980819;28;20296;-69
2021/07/17 00:50:19;;;;;;;10.30;9.50;;;;;;;17.14;100.00;98401.50;4982769;28;20693;-68
2021/07/17 00:52:48;;;;;;;10.83;9.93;;;;;;;17.14;100.00;98403.34;4978436;28;20610;-68
2021/07/17 00:55:16;;;;;;;10.13;9.33;;;;;;;17.15;100.00;98396.97;4982759;28;20233;-68
2021/07/17 00:57:47;;;;;;;10.43;9.67;;;;;;;17.10;100.00;98394.88;4981991;28;20638;-70
2021/07/17 01:00:18;;;;;;;10.13;9.33;;;;;;;17.14;100.00;98388.13;4981118;28;20202;-69
2021/07/17 01:02:47;;;;;;;11.03;10.03;;;;;;;17.06;100.00;98390.97;4982972;28;20633;-70
2021/07/17 01:05:17;;;;;;;10.73;9.70;;;;;;;17.07;100.00;98392.59;4980053;28;20510;-69
2021/07/17 01:07:46;;;;;;;12.50;10.30;;;;;;;17.03;100.00;98386.81;4982352;28;20213;-70
2021/07/17 01:10:15;;;;;;;10.87;9.83;;;;;;;17.03;100.00;98392.16;4984469;28;20213;-69
2021/07/17 01:12:43;;;;;;;10.93;10.00;;;;;;;17.06;100.00;98390.97;4983768;28;20205;-69
2021/07/17 01:15:11;;;;;;;11.30;10.40;;;;;;;16.97;100.00;98398.28;4982043;28;20541;-68
2021/07/17 01:17:41;;;;;;;10.50;9.70;;;;;;;17.00;100.00;98391.72;4981671;28;20235;-69
2021/07/17 01:20:11;;;;;;;10.27;9.47;;;;;;;17.01;100.00;98394.22;4979925;28;20216;-70
2021/07/17 01:22:41;;;;;;;11.23;10.33;;;;;;;16.94;100.00;98390.63;4982536;28;20673;-68
2021/07/17 01:25:12;;;;;;;9.83;9.13;;;;;;;16.92;100.00;98385.47;4985393;28;20296;-68
2021/07/17 01:27:40;;;;;;;11.87;10.80;;;;;;;16.94;100.00;98385.28;4980151;28;20240;-69
2021/07/17 01:30:10;;;;;;;11.63;10.60;;;;;;;16.86;100.00;98390.78;4981181;28;20597;-71
2021/07/17 01:32:38;;;;;;;12.20;11.10;;;;;;;16.87;100.00;98385.22;4981069;28;20205;-68
2021/07/17 01:35:07;;;;;;;11.17;10.27;;;;;;;16.86;100.00;98382.75;4981153;28;20231;-68
2021/07/17 01:37:35;;;;;;;14.10;10.90;;;;;;;16.89;100.00;98380.50;4982885;28;20210;-70
2021/07/17 01:40:05;;;;;;;11.70;9.73;;;;;;;16.87;100.00;98387.09;4980508;28;20214;-69
2021/07/17 01:42:35;;;;;;;12.03;10.93;;;;;;;16.86;100.00;98385.44;4982836;28;20217;-68
2021/07/17 01:45:05;;;;;;;11.60;10.47;;;;;;;16.76;100.00;98375.06;4980743;28;20202;-67
2021/07/17 01:47:34;;;;;;;12.07;11.03;;;;;;;16.83;100.00;98380.44;4984230;28;20221;-69
2021/07/17 01:50:02;;;;;;;11.77;10.63;;;;;;;16.88;100.00;98386.06;4985241;28;20210;-69
2021/07/17 01:52:30;;;;;;;11.10;10.20;;;;;;;16.83;100.00;98383.13;4981863;28;20289;-69
2021/07/17 01:54:58;;;;;;;11.90;10.90;;;;;;;16.78;100.00;98379.19;4981557;28;20210;-69
2021/07/17 01:57:27;;;;;;;12.37;11.27;;;;;;;16.68;100.00;98378.69;4983436;28;20216;-69
2021/07/17 01:59:55;;;;;;;12.90;11.70;;;;;;;16.71;100.00;98383.66;4982662;28;20641;-69
2021/07/17 02:02:23;;;;;;;12.53;11.37;;;;;;;16.64;100.00;98380.94;4981357;28;20209;-71
2021/07/17 02:04:51;;;;;;;13.60;12.20;;;;;;;16.66;100.00;98375.41;4982118;28;20206;-69
2021/07/17 02:07:19;;;;;;;12.63;11.53;;;;;;;16.63;100.00;98371.25;4982757;28;20229;-70
2021/07/17 02:09:47;;;;;;;12.73;11.43;;;;;;;16.61;100.00;98367.94;4980882;28;20210;-70
2021/07/17 02:12:16;;;;;;;13.80;12.37;;;;;;;16.58;100.00;98365.66;4980176;28;20210;-67
2021/07/17 02:14:45;;;;;;;13.87;12.67;;;;;;;16.49;100.00;98354.28;4981188;28;20240;-71
2021/07/17 02:17:13;;;;;;;13.10;11.97;;;;;;;16.54;100.00;98358.22;4986144;28;20206;-68
2021/07/17 02:19:41;;;;;;;13.73;12.63;;;;;;;16.47;100.00;98366.19;4981804;28;20220;-69
2021/07/17 02:22:09;;;;;;;12.83;11.63;;;;;;;16.46;100.00;98364.53;4981511;28;21110;-69
2021/07/17 02:24:37;;;;;;;13.63;12.50;;;;;;;16.39;100.00;98363.66;4980815;28;20236;-69
2021/07/17 02:27:05;;;;;;;13.03;11.93;;;;;;;16.42;100.00;98361.41;4985448;28;20229;-68
2021/07/17 02:29:33;;;;;;;14.07;12.70;;;;;;;16.47;100.00;98367.00;4978404;28;20202;-68
2021/07/17 02:32:03;;;;;;;13.63;12.33;;;;;;;16.40;100.00;98371.47;4982871;28;20744;-70
2021/07/17 02:34:31;;;;;;;13.17;11.87;;;;;;;16.43;100.00;98370.28;4980101;28;20229;-70
2021/07/17 02:36:59;;;;;;;15.10;13.77;;;;;;;16.38;100.00;98370.84;4982446;28;20198;-69
2021/07/17 02:39:27;;;;;;;15.03;13.60;;;;;;;16.38;100.00;98364.69;4982733;28;20202;-70
2021/07/17 02:41:55;;;;;;;15.37;14.07;;;;;;;16.35;100.00;98368.56;4981511;28;20901;-68
2021/07/17 02:44:23;;;;;;;14.50;13.30;;;;;;;16.34;100.00;98361.53;4980925;28;20229;-68
2021/07/17 02:46:51;;;;;;;14.57;13.27;;;;;;;16.39;100.00;98367.13;4985703;28;20602;-69
2021/07/17 02:49:21;;;;;;;14.27;13.00;;;;;;;16.42;100.00;98369.44;4983722;28;20264;-68
2021/07/17 02:51:48;;;;;;;14.57;13.17;;;;;;;16.53;100.00;98367.28;4980710;28;20212;-68
2021/07/17 02:54:17;;;;;;;15.57;14.27;;;;;;;16.48;100.00;98374.03;4984674;28;20729;-69
2021/07/17 02:56:44;;;;;;;16.60;15.07;;;;;;;16.53;100.00;98372.63;4983364;28;20210;-69
2021/07/17 02:59:12;;;;;;;15.57;13.53;;;;;;;16.66;100.00;98370.03;4984554;28;20209;-70
2021/07/17 03:01:40;;;;;;;15.70;13.83;;;;;;;16.65;100.00;98371.06;4985379;28;20214;-70
2021/07/17 03:04:08;;;;;;;14.43;13.03;;;;;;;16.72;100.00;98374.63;4980352;28;20284;-70
2021/07/17 03:06:38;;;;;;;15.60;14.10;;;;;;;16.87;100.00;98368.34;4978822;28;20288;-68
2021/07/17 03:09:06;;;;;;;16.30;14.80;;;;;;;16.89;100.00;98368.97;4980070;28;20688;-68
2021/07/17 03:11:34;;;;;;;16.00;14.30;;;;;;;16.86;100.00;98378.22;4981841;28;20220;-68
2021/07/17 03:14:03;;;;;;;14.67;13.27;;;;;;;16.91;100.00;98372.28;4982081;28;20233;-70
2021/07/17 03:16:32;;;;;;;16.23;14.73;;;;;;;16.88;100.00;98372.69;4983021;28;20348;-67
2021/07/17 03:19:00;;;;;;;16.27;14.57;;;;;;;16.95;100.00;98364.69;4982944;28;20202;-70
2021/07/17 03:21:28;;;;;;;16.47;14.87;;;;;;;16.99;100.00;98360.59;4980676;28;20201;-68
2021/07/17 03:23:58;;;;;;;15.50;13.90;;;;;;;17.02;100.00;98366.41;4983016;28;20718;-70
2021/07/17 03:26:26;;;;;;;16.13;14.63;;;;;;;17.13;100.00;98370.41;4983896;28;20209;-69
2021/07/17 03:28:54;;;;;;;14.97;13.57;;;;;;;17.14;100.00;98368.53;4981838;28;20657;-68
2021/07/17 03:31:26;;;;;;;16.57;14.87;;;;;;;17.18;100.00;98364.44;4981863;28;20715;-69
2021/07/17 03:33:55;;;;;;;15.67;14.27;;;;;;;17.10;100.00;98359.25;4977511;28;20226;-71
2021/07/17 03:36:23;;;;;;;16.17;14.67;;;;;;;17.12;100.00;98363.38;4981897;28;20212;-71
2021/07/17 03:38:51;;;;;;;16.73;15.13;;;;;;;17.18;100.00;98361.75;4987728;28;20205;-71
2021/07/17 03:41:20;;;;;;;16.03;14.40;;;;;;;17.13;100.00;98366.88;4981679;28;20593;-69
2021/07/17 03:43:49;;;;;;;16.57;15.00;;;;;;;17.16;100.00;98370.00;4983791;28;20238;-71
2021/07/17 03:46:17;;;;;;;16.83;15.13;;;;;;;17.19;100.00;98371.44;4985910;28;20201;-70
2021/07/17 03:48:45;;;;;;;16.90;15.30;;;;;;;17.27;100.00;98375.81;4985699;28;20232;-70
2021/07/17 03:51:13;;;;;;;16.47;14.97;;;;;;;17.24;100.00;98369.03;4984518;28;20201;-71
2021/07/17 03:53:41;;;;;;;15.57;13.93;;;;;;;17.32;100.00;98368.84;4983946;28;20240;-69
2021/07/17 03:56:09;;;;;;;15.70;14.30;;;;;;;17.38;100.00;98363.72;4980095;28;20214;-70
2021/07/17 03:58:38;;;;;;;17.07;15.33;;;;;;;17.38;100.00;98366.41;4983422;28;20209;-72
2021/07/17 04:01:06;;;;;;;17.17;15.53;;;;;;;17.46;100.00;98364.38;4975735;28;20729;-71
2021/07/17 04:03:34;;;;;;;15.73;14.30;;;;;;;17.53;100.00;98376.97;4982220;28;20230;-71
2021/07/17 04:06:02;;;;;;;16.67;14.97;;;;;;;17.48;100.00;98380.25;4987808;28;20296;-70
2021/07/17 04:08:30;;;;;;;15.73;14.10;;;;;;;17.47;100.00;98378.59;4983218;28;20229;-70
2021/07/17 04:10:59;;;;;;;16.47;14.80;;;;;;;17.48;100.00;98390.97;4982789;28;20213;-71
2021/07/17 04:13:27;;;;;;;16.00;14.27;;;;;;;17.41;100.00;98384.75;4984068;28;20226;-71
2021/07/17 04:15:57;;;;;;;16.43;14.80;;;;;;;17.42;100.00;98389.09;4983803;28;20220;-71
2021/07/17 04:18:25;;;;;;;17.13;15.37;;;;;;;17.41;100.00;98390.09;4976935;28;20250;-71
2021/07/17 04:20:53;;;;;;;16.33;14.73;;;;;;;17.53;100.00;98395.72;4988262;28;20210;-71
2021/07/17 04:23:20;;;;;;;15.37;14.03;;;;;;;17.64;100.00;98395.16;4988500;28;20229;-72
2021/07/17 04:25:48;;;;;;;17.43;15.83;;;;;;;17.66;100.00;98398.47;4986887;28;20272;-70
2021/07/17 04:28:16;;;;;;;18.67;14.60;;;;;;;17.63;100.00;98412.25;4979429;28;20714;-71
2021/07/17 04:30:45;;;;;;;15.20;13.60;;;;;;;17.54;100.00;98405.41;4988711;28;20288;-72
2021/07/17 04:33:14;;;;;;;16.03;14.37;;;;;;;17.53;100.00;98407.25;4986175;28;20280;-70
2021/07/17 04:35:42;;;;;;;17.07;15.37;;;;;;;17.55;100.00;98405.22;4989504;28;20205;-71
2021/07/17 04:38:10;;;;;;;19.03;15.87;;;;;;;17.50;100.00;98394.25;4971001;28;20237;-69
2021/07/17 04:40:38;;;;;;;17.20;15.43;;;;;;;17.48;100.00;98399.84;4974076;28;20217;-71
2021/07/17 04:43:06;;;;;;;18.20;16.30;;;;;;;17.48;100.00;98402.53;4965877;28;20260;-70
2021/07/17 04:45:34;;;;;;;17.53;15.47;;;;;;;17.55;100.00;98407.88;4966214;28;20353;-71
2021/07/17 04:48:04;;;;;;;16.93;15.33;;;;;;;17.49;100.00;98409.53;4974404;28;20237;-70
2021/07/17 04:50:34;;;;;;;19.70;15.70;;;;;;;17.46;100.00;98411.75;4973370;28;20292;-70
2021/07/17 04:53:03;;;;;;;21.30;16.50;;;;;;;17.53;100.00;98412.63;4975585;28;20765;-71
2021/07/17 04:55:31;;;;;;;19.27;16.73;;;;;;;17.55;100.00;98402.53;4981335;28;20210;-71
2021/07/17 04:58:03;;;;;;;18.53;15.37;;;;;;;17.53;100.00;98401.09;4983887;28;20205;-71
2021/07/17 05:00:31;;;;;;;17.37;15.40;;;;;;;17.63;100.00;98405.06;4983898;28;20469;-68
2021/07/17 05:02:59;;;;;;;17.53;15.57;;;;;;;17.60;100.00;98413.47;4981541;28;20229;-70
2021/07/17 05:05:27;;;;;;;17.90;16.20;;;;;;;17.60;100.00;98402.75;4978353;28;20210;-71
2021/07/17 05:07:56;;;;;;;17.93;16.23;;;;;;;17.62;100.00;98410.59;4975255;28;20230;-70
2021/07/17 05:10:25;;;;;;;17.53;15.10;;;;;;;17.62;100.00;98414.13;4983469;28;20424;-70
2021/07/17 05:12:53;;;;;;;16.47;14.73;;;;;;;17.65;100.00;98405.69;4982790;28;20225;-71
2021/07/17 05:15:21;;;;;;;18.47;15.90;;;;;;;17.63;100.00;98412.25;4983718;28;20221;-70
2021/07/17 05:17:49;;;;;;;19.60;15.10;;;;;;;17.54;100.00;98413.47;4984323;28;20699;-70
2021/07/17 05:20:18;;;;;;;18.20;15.40;;;;;;;17.45;100.00;98418.16;4980685;28;20216;-69
2021/07/17 05:22:46;;;;;;;17.50;15.67;;;;;;;17.42;100.00;98416.69;4980655;28;20323;-69
2021/07/17 05:25:16;;;;;;;17.33;15.63;;;;;;;17.57;100.00;98416.56;4981569;28;20240;-69
2021/07/17 05:27:44;;;;;;;17.13;15.23;;;;;;;17.54;100.00;98414.28;4980899;28;20609;-70
2021/07/17 05:30:13;;;;;;;18.43;16.57;;;;;;;17.46;100.00;98415.28;4986735;28;20220;-69
2021/07/17 05:32:41;;;;;;;17.97;15.30;;;;;;;17.44;100.00;98413.81;4979457;28;20213;-69
2021/07/17 05:35:09;;;;;;;17.10;15.33;;;;;;;17.52;100.00;98412.84;4980436;28;20201;-69
2021/07/17 05:37:37;;;;;;;18.63;15.83;;;;;;;17.54;100.00;98408.09;4978228;28;20206;-69
2021/07/17 05:40:07;;;;;;;21.53;16.10;;;;;;;17.50;100.00;98415.69;4980312;28;20205;-71
2021/07/17 05:42:36;;;;;;;17.43;15.63;;;;;;;17.46;100.00;98417.97;4971717;28;20233;-70
2021/07/17 05:45:05;;;;;;;24.40;16.87;;;;;;;17.43;100.00;98417.53;4961774;28;20427;-69
2021/07/17 05:47:33;;;;;;;22.27;16.47;;;;;;;17.45;100.00;98416.31;4969609;28;20749;-69
2021/07/17 05:50:01;;;;;;;20.00;16.13;;;;;;;17.46;100.00;98427.84;4976685;28;20225;-70
2021/07/17 05:52:29;;;;;;;17.97;16.07;;;;;;;17.57;100.00;98413.88;4980687;28;20207;-70
2021/07/17 05:54:57;;;;;;;21.07;16.83;;;;;;;17.48;100.00;98420.44;4980257;28;20210;-71
2021/07/17 05:57:25;;;;;;;16.87;14.90;;;;;;;17.40;100.00;98413.38;4983207;28;20726;-70
2021/07/17 05:59:54;;;;;;;20.10;16.37;;;;;;;17.46;100.00;98415.28;4982055;28;20232;-70
2021/07/17 06:02:22;;;;;;;24.37;17.43;;;;;;;17.46;100.00;98417.13;4982293;28;20209;-70
2021/07/17 06:04:50;;;;;;;22.63;17.27;;;;;;;17.42;100.00;98413.19;4980322;28;20740;-69
2021/07/17 06:07:18;;;;;;;19.50;15.33;;;;;;;17.41;100.00;98408.84;4981635;28;20216;-71
2021/07/17 06:09:46;;;;;;;17.90;16.13;;;;;;;17.53;100.00;98414.50;4979806;28;20495;-69
2021/07/17 06:12:14;;;;;;;22.90;16.10;;;;;;;17.42;100.00;98421.22;4978084;28;20208;-70
2021/07/17 06:14:42;;;;;;;18.73;16.70;;;;;;;17.39;100.00;98421.63;4981370;28;20257;-70
2021/07/17 06:17:12;;;;;;;25.40;16.80;;;;;;;17.38;100.00;98415.44;4983421;28;20205;-69
2021/07/17 06:19:40;;;;;;;18.20;16.03;;;;;;;17.28;100.00;98414.97;4978559;28;20201;-69
2021/07/17 06:22:09;;;;;;;21.03;16.80;;;;;;;17.43;100.00;98417.53;4973107;28;20811;-69
2021/07/17 06:24:38;;;;;;;20.77;17.53;;;;;;;17.33;100.00;98417.88;4977644;28;20228;-69
2021/07/17 06:27:06;;;;;;;19.93;17.23;;;;;;;17.45;100.00;98421.66;4979311;28;20708;-68
2021/07/17 06:29:34;;;;;;;20.50;16.67;;;;;;;17.48;100.00;98418.59;4977595;28;20226;-68
2021/07/17 06:32:02;;;;;;;22.07;18.43;;;;;;;17.41;100.00;98416.91;4981494;28;20199;-69
2021/07/17 06:34:32;;;;;;;22.30;16.93;;;;;;;17.27;100.00;98416.00;4979768;28;20223;-68
2021/07/17 06:37:00;;;;;;;21.63;17.23;;;;;;;17.21;100.00;98410.41;4982021;28;20383;-71
2021/07/17 06:39:28;;;;;;;20.07;17.37;;;;;;;17.40;100.00;98409.88;4977100;28;20209;-71
2021/07/17 06:41:56;;;;;;;21.87;18.10;;;;;;;17.40;100.00;98407.19;4982667;28;20210;-70
2021/07/17 06:44:25;;;;;;;23.90;17.77;;;;;;;17.40;100.00;98413.38;4983905;28;20332;-70
2021/07/17 06:46:53;;;;;;;20.43;18.20;;;;;;;17.47;100.00;98411.59;4983286;28;20586;-68
2021/07/17 06:49:21;;;;;;;19.40;17.40;;;;;;;17.54;100.00;98413.47;4980630;28;20693;-69
2021/07/17 06:51:50;;;;;;;20.20;17.40;;;;;;;17.57;100.00;98411.19;4979050;28;20213;-70
2021/07/17 06:54:18;;;;;;;20.20;17.80;;;;;;;17.75;100.00;98416.00;4980754;28;20232;-69
2021/07/17 06:56:46;;;;;;;18.13;16.27;;;;;;;17.79;100.00;98413.78;4984276;28;20590;-69
2021/07/17 06:59:14;;;;;;;17.20;14.50;;;;;;;17.84;100.00;98419.34;4988034;28;20205;-70
2021/07/17 07:01:42;;;;;;;19.80;15.07;;;;;;;17.81;100.00;98419.75;4981086;28;20206;-71
2021/07/17 07:04:10;;;;;;;15.87;13.37;;;;;;;17.88;100.00;98430.50;4986099;28;20460;-67
2021/07/17 07:06:39;;;;;;;15.00;13.53;;;;;;;17.85;100.00;98431.72;4981402;28;20210;-71
2021/07/17 07:09:08;;;;;;;13.73;11.87;;;;;;;17.86;100.00;98441.41;4981585;28;20233;-68
2021/07/17 07:11:39;;;;;;;12.67;11.57;;;;;;;17.76;100.00;98438.28;4976972;28;20209;-69
2021/07/17 07:14:08;;;;;;;12.43;11.27;;;;;;;17.69;100.00;98440.13;4982819;28;20713;-70
2021/07/17 07:16:36;;;;;;;12.83;11.37;;;;;;;17.65;100.00;98442.38;4985003;28;20232;-70
2021/07/17 07:19:04;;;;;;;10.90;9.77;;;;;;;17.68;100.00;98449.19;4983358;28;20197;-72
2021/07/17 07:21:32;;;;;;;12.03;11.00;;;;;;;17.61;100.00;98449.97;4981924;28;20201;-70
2021/07/17 07:24:00;;;;;;;11.97;11.03;;;;;;;17.58;100.00;98449.53;4982319;28;20252;-72
2021/07/17 07:26:30;;;;;;;12.17;11.17;;;;;;;17.71;100.00;98438.88;4981105;28;20209;-71
2021/07/17 07:28:58;;;;;;;12.50;11.57;;;;;;;17.73;100.00;98447.53;4985036;28;20487;-72
2021/07/17 07:31:27;;;;;;;12.03;10.83;;;;;;;17.74;100.00;98446.53;4980633;28;20213;-71
2021/07/17 07:33:55;;;;;;;12.83;11.77;;;;;;;17.75;100.00;98448.19;4983251;28;20222;-72
2021/07/17 07:36:23;;;;;;;12.73;11.67;;;;;;;17.86;100.00;98454.00;4983682;28;20725;-69
2021/07/17 07:38:52;;;;;;;12.57;11.30;;;;;;;17.80;100.00;98458.31;4980328;28;20206;-68
2021/07/17 07:41:20;;;;;;;12.67;11.47;;;;;;;17.76;100.00;98451.69;4983270;28;20209;-70
2021/07/17 07:43:49;;;;;;;13.97;12.70;;;;;;;17.85;100.00;98453.16;4982274;28;20242;-71
2021/07/17 07:46:17;;;;;;;15.13;13.63;;;;;;;17.97;100.00;98442.72;4988197;28;20216;-70
2021/07/17 07:48:45;;;;;;;14.60;13.30;;;;;;;18.02;100.00;98453.69;4986208;28;20597;-72
2021/07/17 07:51:13;;;;;;;13.90;12.70;;;;;;;18.15;100.00;98447.53;4984822;28;20354;-71
2021/07/17 07:53:42;;;;;;;16.27;14.87;;;;;;;18.13;100.00;98454.13;4983184;28;20233;-71
2021/07/17 07:56:09;;;;;;;15.67;14.07;;;;;;;18.12;100.00;98447.94;4983900;28;20303;-67
2021/07/17 07:58:38;;;;;;;15.90;13.63;;;;;;;18.19;100.00;98464.06;4982015;28;20718;-70
2021/07/17 08:01:07;;;;;;;16.67;14.80;;;;;;;18.04;100.00;98453.50;4982739;28;20214;-71
2021/07/17 08:03:35;;;;;;;15.40;14.00;;;;;;;18.18;100.00;98447.13;4979864;28;20308;-69
2021/07/17 08:06:03;;;;;;;16.53;14.53;;;;;;;18.32;100.00;98439.09;4984490;28;20746;-69
2021/07/17 08:08:31;;;;;;;16.27;14.60;;;;;;;18.23;100.00;98457.28;4984140;28;20590;-69
2021/07/17 08:11:00;;;;;;;17.70;14.60;;;;;;;18.30;100.00;98455.41;4976807;28;20271;-67
2021/07/17 08:13:28;;;;;;;15.80;14.07;;;;;;;18.37;100.00;98445.53;4983835;28;20280;-68
2021/07/17 08:15:58;;;;;;;18.10;15.00;;;;;;;18.33;100.00;98448.81;4984618;28;20586;-69
2021/07/17 08:18:27;;;;;;;16.50;14.73;;;;;;;18.32;100.00;98452.53;4985353;28;20205;-69
2021/07/17 08:20:56;;;;;;;17.47;14.53;;;;;;;18.51;100.00;98443.69;4980169;28;20212;-70
2021/07/17 08:23:24;;;;;;;18.07;15.90;;;;;;;18.62;100.00;98436.91;4978709;28;20774;-70
2021/07/17 08:25:52;;;;;;;15.97;14.37;;;;;;;18.66;100.00;98443.50;4979806;28;20497;-70
2021/07/17 08:28:21;;;;;;;14.67;13.03;;;;;;;18.70;100.00;98443.09;4980374;28;20408;-70
2021/07/17 08:30:49;;;;;;;14.87;13.27;;;;;;;18.74;100.00;98439.78;4979897;28;20241;-70
2021/07/17 08:33:20;;;;;;;18.07;13.37;;;;;;;18.76;100.00;98442.25;4977901;28;20627;-70
2021/07/17 08:35:49;;;;;;;18.77;14.23;;;;;;;18.78;100.00;98445.56;4974236;28;20301;-71
2021/07/17 08:38:17;;;;;;;20.50;14.70;;;;;;;19.04;100.00;98444.75;4977651;28;20613;-73
2021/07/17 08:40:53;;;;;;;18.43;14.87;;;;;;;18.90;100.00;98437.72;4983085;28;20209;-70
2021/07/17 08:43:21;;;;;;;16.67;14.43;;;;;;;18.97;100.00;98440.41;4983264;28;20676;-71
2021/07/17 08:45:49;;;;;;;14.13;12.87;;;;;;;19.22;100.00;98440.63;4980830;28;20221;-72
2021/07/17 08:48:19;;;;;;;14.00;12.63;;;;;;;19.39;100.00;98441.00;4980448;28;20753;-68
2021/07/17 08:50:49;;;;;;;18.67;14.33;;;;;;;19.34;100.00;98447.00;4980435;28;20272;-70
2021/07/17 08:53:18;;;;;;;16.60;13.20;;;;;;;19.04;100.00;98438.56;4976140;28;20225;-70
2021/07/17 08:55:46;;;;;;;14.37;12.87;;;;;;;19.38;100.00;98437.47;4979727;28;20206;-69
2021/07/17 08:58:14;;;;;;;13.33;12.10;;;;;;;19.71;100.00;98445.66;4983356;28;20202;-69
2021/07/17 09:00:44;;;;;;;15.67;14.10;;;;;;;19.72;100.00;98445.47;4979256;28;20201;-70
2021/07/17 09:03:16;;;;;;;15.43;13.67;;;;;;;19.61;100.00;98443.41;4979638;28;20658;-69
2021/07/17 09:05:46;;;;;;;16.17;13.53;;;;;;;19.29;100.00;98446.81;4978047;28;20300;-70
2021/07/17 09:08:16;;;;;;;14.27;12.90;;;;;;;19.34;100.00;98430.88;4974087;28;20221;-70
2021/07/17 09:10:46;;;;;;;14.67;13.17;;;;;;;19.55;100.00;98431.66;4981260;28;20469;-70
2021/07/17 09:13:19;;;;;;;15.37;13.30;;;;;;;19.55;100.00;98426.28;4980335;28;20279;-70
2021/07/17 09:16:02;;;;;;;14.70;13.17;;;;;;;19.51;100.00;98433.13;4982438;28;20217;-69
2021/07/17 09:18:36;;;;;;;14.13;12.73;;;;;;;19.63;100.00;98428.72;4983389;28;20570;-69
2021/07/17 09:21:07;;;;;;;15.47;12.20;;;;;;;19.59;100.00;98430.19;4981068;28;20206;-69
2021/07/17 09:23:40;;;;;;;13.73;12.53;;;;;;;19.73;100.00;98427.44;4983935;28;20232;-73
2021/07/17 09:26:10;;;;;;;13.20;11.87;;;;;;;20.00;100.00;98425.50;4984114;28;20198;-71
2021/07/17 09:28:38;;;;;;;11.93;10.87;;;;;;;20.38;98.57;98413.88;4984702;28;20213;-70
2021/07/17 09:31:07;;;;;;;12.70;11.37;;;;;;;20.83;94.99;98420.19;4985794;28;20218;-70
2021/07/17 09:33:36;;;;;;;12.87;11.03;;;;;;;20.94;93.46;98414.09;4980201;28;20230;-70
2021/07/17 09:36:05;;;;;;;14.83;11.10;;;;;;;21.11;91.46;98422.44;4981610;28;20290;-72
2021/07/17 09:38:33;;;;;;;12.13;10.60;;;;;;;21.05;91.27;98419.81;4982299;28;20239;-70
2021/07/17 09:41:05;;;;;;;11.50;10.30;;;;;;;21.29;91.03;98410.03;4980784;28;20738;-71
2021/07/17 09:43:38;;;;;;;13.30;10.37;;;;;;;21.35;89.68;98408.31;4984592;28;20265;-69
2021/07/17 09:46:21;;;;;;;11.93;10.70;;;;;;;21.20;89.95;98400.59;4982555;28;20212;-70
2021/07/17 09:48:52;;;;;;;11.10;10.00;;;;;;;21.27;89.17;98411.31;4982149;28;20325;-71
2021/07/17 09:51:22;;;;;;;12.40;11.30;;;;;;;21.23;89.35;98403.69;4981664;28;20240;-70
2021/07/17 09:53:51;;;;;;;11.53;10.37;;;;;;;21.16;89.71;98404.78;4981370;28;20225;-69
2021/07/17 09:56:22;;;;;;;12.33;11.03;;;;;;;21.24;90.68;98404.47;4982490;28;20698;-71
2021/07/17 09:58:51;;;;;;;13.47;11.30;;;;;;;21.25;89.45;98403.44;4976852;28;20234;-70
2021/07/17 10:01:21;;;;;;;11.00;9.80;;;;;;;21.14;90.31;98401.50;4977810;28;20606;-70
2021/07/17 10:03:51;;;;;;;11.80;10.63;;;;;;;20.94;91.61;98402.50;4977367;28;20288;-68
2021/07/17 10:06:27;;;;;;;11.07;10.13;;;;;;;20.78;92.47;98399.28;4981831;28;20713;-69
2021/07/17 10:08:55;;;;;;;10.40;9.70;;;;;;;20.81;93.12;98403.44;4979700;28;20209;-69
2021/07/17 10:11:25;;;;;;;11.07;9.97;;;;;;;20.68;93.31;98401.66;4980898;28;20221;-69
2021/07/17 10:13:53;;;;;;;11.03;9.97;;;;;;;20.59;93.28;98398.41;4981000;28;20714;-69
2021/07/17 10:16:23;;;;;;;10.77;9.63;;;;;;;20.35;95.22;98397.34;4980817;28;20209;-70
2021/07/17 10:18:52;;;;;;;10.57;9.50;;;;;;;20.54;94.47;98395.56;4979053;28;20206;-70
2021/07/17 10:21:20;;;;;;;10.40;9.30;;;;;;;20.62;93.64;98391.75;4981275;28;20318;-70
2021/07/17 10:23:48;;;;;;;10.67;9.80;;;;;;;20.81;93.83;98398.03;4983931;28;20232;-70
2021/07/17 10:26:16;;;;;;;10.47;9.60;;;;;;;20.60;94.93;98396.53;4981390;28;20671;-70
2021/07/17 10:28:46;;;;;;;12.07;10.87;;;;;;;20.53;95.40;98405.50;4981686;28;20838;-70
2021/07/17 10:31:14;;;;;;;10.23;9.30;;;;;;;20.59;94.81;98405.66;4982540;28;20602;-69
2021/07/17 10:33:42;;;;;;;11.37;10.33;;;;;;;20.67;93.83;98397.31;4985814;28;20252;-69
2021/07/17 10:36:12;;;;;;;10.20;9.20;;;;;;;20.92;90.89;98402.72;4983973;28;20216;-68
2021/07/17 10:38:44;;;;;;;10.03;9.07;;;;;;;21.13;89.19;98397.16;4986070;28;20705;-71
2021/07/17 10:41:15;;;;;;;10.40;9.53;;;;;;;21.48;87.55;98393.88;4983573;28;20209;-71
2021/07/17 10:43:43;;;;;;;10.30;9.30;;;;;;;21.71;87.29;98395.91;4983842;28;20791;-70
2021/07/17 10:46:28;;;;;;;13.47;9.90;;;;;;;21.27;87.42;98384.34;4982679;28;20209;-69
2021/07/17 10:48:58;;;;;;;10.80;8.90;;;;;;;21.09;88.54;98381.44;4984365;28;20197;-69
2021/07/17 10:51:32;;;;;;;9.57;8.67;;;;;;;21.10;88.92;98380.38;4985172;28;20225;-69
2021/07/17 10:54:01;;;;;;;10.43;9.47;;;;;;;21.05;88.53;98388.31;4985800;28;20225;-69
2021/07/17 10:56:41;;;;;;;10.90;9.70;;;;;;;21.19;88.27;98382.78;4982867;28;20468;-70
2021/07/17 10:59:44;;;;;;;9.73;8.57;;;;;;;20.90;89.73;98385.13;4984971;28;20236;-70
2021/07/17 11:02:16;;;;;;;10.43;9.40;;;;;;;20.61;91.11;98387.41;4984107;28;20240;-69
2021/07/17 11:04:50;;;;;;;10.13;9.23;;;;;;;20.42;93.71;98381.13;4982915;28;20229;-69
2021/07/17 11:07:40;;;;;;;10.17;9.23;;;;;;;20.38;93.52;98384.28;4983091;28;20699;-70
2021/07/17 11:10:13;;;;;;;10.57;9.50;;;;;;;20.31;94.26;98390.75;4984603;28;20202;-71
2021/07/17 11:12:59;;;;;;;9.97;9.00;;;;;;;20.27;95.03;98381.44;4989340;28;20394;-69
2021/07/17 11:15:48;;;;;;;11.07;10.00;;;;;;;20.10;96.31;98379.28;4981170;28;20213;-70
2021/07/17 11:18:23;;;;;;;10.83;9.87;;;;;;;20.21;97.08;98383.16;4984873;28;20225;-69
2021/07/17 11:20:53;;;;;;;10.23;9.43;;;;;;;20.02;97.83;98375.00;4983659;28;20209;-69